createdAt,value
2019-05-07T00:04:04.836Z,5.33
2019-05-07T00:09:28.925Z,5.00
2019-05-07T00:15:01.727Z,5.10
2019-05-07T00:20:16.175Z,4.77
2019-05-07T00:25:32.783Z,4.90
2019-05-07T00:30:49.154Z,5.87
2019-05-07T00:36:20.373Z,5.23
2019-05-07T00:41:42.781Z,5.47
2019-05-07T00:46:58.949Z,5.10
2019-05-07T00:52:14.665Z,5.30
2019-05-07T00:57:32.401Z,4.97
2019-05-07T01:02:48.309Z,5.83
2019-05-07T01:08:04.199Z,5.20
2019-05-07T01:13:19.817Z,4.93
2019-05-07T01:18:35.281Z,5.00
2019-05-07T01:23:52.326Z,5.07
2019-05-07T01:29:08.604Z,5.57
2019-05-07T01:34:43.086Z,5.33
2019-05-07T01:39:58.767Z,5.07
2019-05-07T01:45:15.734Z,5.10
2019-05-07T01:50:32.252Z,5.20
2019-05-07T01:55:48.354Z,5.23
2019-05-07T02:01:04.502Z,5.27
2019-05-07T02:06:34.133Z,4.70
2019-05-07T02:12:08.565Z,5.20
2019-05-07T02:17:24.828Z,4.97
2019-05-07T02:22:42.590Z,5.87
2019-05-07T02:27:57.935Z,5.90
2019-05-07T02:33:13.993Z,4.80
2019-05-07T02:38:44.502Z,6.27
2019-05-07T02:44:04.006Z,6.27
2019-05-07T02:49:43.948Z,5.07
2019-05-07T02:55:08.081Z,5.07
2019-05-07T03:00:24.447Z,5.53
2019-05-07T03:05:43.019Z,5.00
2019-05-07T03:10:57.759Z,5.00
2019-05-07T03:16:13.355Z,5.40
2019-05-07T03:21:48.189Z,5.90
2019-05-07T03:27:04.024Z,5.13
2019-05-07T03:32:28.662Z,5.70
2019-05-07T03:37:44.677Z,5.77
2019-05-07T03:43:02.861Z,5.43
2019-05-07T03:48:23.730Z,5.40
2019-05-07T03:53:43.171Z,5.83
2019-05-07T03:58:57.259Z,4.87
2019-05-07T04:04:13.282Z,5.23
2019-05-07T04:09:29.656Z,5.33
2019-05-07T04:14:45.386Z,5.47
2019-05-07T04:20:04.087Z,5.13
2019-05-07T04:25:34.581Z,4.83
2019-05-07T04:30:53.051Z,4.93
2019-05-07T04:36:18.084Z,5.33
2019-05-07T04:41:36.696Z,5.17
2019-05-07T04:46:53.353Z,5.33
2019-05-07T04:52:15.303Z,5.37
2019-05-07T04:57:32.982Z,5.37
2019-05-07T05:03:14.198Z,4.80
2019-05-07T05:08:32.494Z,5.10
2019-05-07T05:13:47.659Z,4.73
2019-05-07T05:19:03.274Z,5.20
2019-05-07T05:24:33.058Z,5.67
2019-05-07T05:29:48.771Z,5.53
2019-05-07T05:35:08.693Z,6.63
2019-05-07T05:40:25.158Z,6.07
2019-05-07T05:45:42.896Z,6.00
2019-05-07T05:51:23.462Z,5.80
2019-05-07T05:56:48.095Z,5.70
2019-05-07T06:02:32.462Z,5.33
2019-05-07T06:07:59.202Z,5.70
2019-05-07T06:13:32.726Z,5.43
2019-05-07T06:19:12.963Z,5.43
2019-05-07T06:24:42.667Z,5.10
2019-05-07T06:29:58.194Z,5.07
2019-05-07T06:35:14.226Z,5.93
2019-05-07T06:40:56.699Z,5.53
2019-05-07T06:46:12.633Z,5.17
2019-05-07T06:51:28.429Z,6.03
2019-05-07T06:56:44.405Z,5.67
2019-05-07T07:02:18.885Z,7.67
2019-05-07T07:07:52.636Z,8.27
2019-05-07T07:13:08.695Z,7.53
2019-05-07T07:18:26.270Z,8.37
2019-05-07T07:23:42.962Z,7.90
2019-05-07T07:28:58.923Z,6.80
2019-05-07T07:34:14.933Z,7.50
2019-05-07T07:39:32.311Z,7.13
2019-05-07T07:44:51.794Z,7.63
2019-05-07T07:50:07.687Z,8.60
2019-05-07T07:55:30.413Z,8.07
2019-05-07T08:01:02.707Z,7.03
2019-05-07T08:06:18.494Z,7.13
2019-05-07T08:11:33.974Z,6.43
2019-05-07T08:16:49.725Z,6.30
2019-05-07T08:22:05.331Z,7.40
2019-05-07T08:27:22.188Z,6.13
2019-05-07T08:32:47.833Z,5.43
2019-05-07T08:38:03.912Z,5.57
2019-05-07T08:43:21.872Z,4.50
2019-05-07T08:48:42.521Z,5.13
2019-05-07T08:54:07.428Z,5.20
2019-05-07T08:59:23.598Z,4.33
2019-05-07T09:04:41.625Z,3.73
2019-05-07T09:09:59.685Z,3.53
2019-05-07T09:15:16.941Z,3.30
2019-05-07T09:20:32.517Z,3.50
2019-05-07T09:25:49.234Z,3.33
2019-05-07T09:31:14.791Z,3.40
2019-05-07T09:36:36.229Z,3.33
2019-05-07T09:41:52.735Z,2.80
2019-05-07T09:47:08.922Z,3.27
2019-05-07T09:52:24.232Z,3.40
2019-05-07T09:57:42.255Z,2.77
2019-05-07T10:02:58.012Z,3.07
2019-05-07T10:08:14.189Z,2.77
2019-05-07T10:13:38.090Z,3.60
2019-05-07T10:18:53.733Z,3.83
2019-05-07T10:24:12.860Z,3.57
2019-05-07T10:29:29.726Z,3.80
2019-05-07T10:34:45.950Z,3.33
2019-05-07T10:40:03.032Z,3.33
2019-05-07T10:45:42.554Z,2.87
2019-05-07T10:50:59.014Z,3.00
2019-05-07T10:56:14.953Z,4.00
2019-05-07T11:01:37.089Z,3.83
2019-05-07T11:06:53.010Z,3.70
2019-05-07T11:12:08.849Z,3.43
2019-05-07T11:17:42.689Z,3.93
2019-05-07T11:22:58.563Z,4.20
2019-05-07T11:28:14.303Z,3.43
2019-05-07T11:33:29.863Z,3.77
2019-05-07T11:38:45.514Z,3.63
2019-05-07T11:44:12.883Z,3.70
2019-05-07T11:49:47.289Z,3.33
2019-05-07T11:55:03.120Z,4.10
2019-05-07T12:00:33.913Z,4.13
2019-05-07T12:05:50.131Z,3.90
2019-05-07T12:11:05.851Z,3.23
2019-05-07T12:16:22.487Z,4.07
2019-05-07T12:21:38.167Z,3.50
2019-05-07T12:26:54.021Z,4.33
2019-05-07T12:32:27.258Z,3.30
2019-05-07T12:37:45.920Z,3.53
2019-05-07T12:43:01.979Z,4.43
2019-05-07T12:48:18.047Z,3.30
2019-05-07T12:53:47.734Z,3.63
2019-05-07T12:59:03.655Z,4.50
2019-05-07T13:04:22.211Z,3.50
2019-05-07T13:09:39.332Z,4.00
2019-05-07T13:14:59.322Z,3.73
2019-05-07T13:20:15.160Z,3.80
2019-05-07T13:25:32.426Z,3.60
2019-05-07T13:30:49.183Z,3.40
2019-05-07T13:37:07.339Z,3.60
2019-05-07T13:42:52.284Z,3.30
2019-05-07T13:48:27.181Z,4.07
2019-05-07T13:53:42.946Z,3.83
2019-05-07T13:58:58.927Z,4.30
2019-05-07T14:10:32.094Z,3.50
2019-05-07T14:16:08.734Z,3.30
2019-05-07T14:21:24.811Z,3.23
2019-05-07T14:26:42.272Z,3.77
2019-05-07T14:32:17.753Z,3.27
2019-05-07T14:37:52.443Z,3.37
2019-05-07T14:43:14.057Z,3.77
2019-05-07T14:48:30.208Z,3.53
2019-05-07T14:53:46.071Z,3.83
2019-05-07T14:59:03.598Z,3.23
2019-05-07T15:04:19.211Z,3.13
2019-05-07T15:09:35.015Z,4.10
2019-05-07T15:14:52.742Z,3.00
2019-05-07T15:20:13.828Z,2.93
2019-05-07T15:25:31.855Z,3.50
2019-05-07T15:31:15.544Z,2.70
2019-05-07T15:36:32.125Z,3.13
2019-05-07T15:41:48.416Z,3.77
2019-05-07T15:47:08.877Z,3.07
2019-05-07T15:52:42.097Z,3.33
2019-05-07T15:57:58.606Z,3.63
2019-05-07T16:03:26.422Z,3.33
2019-05-07T16:09:07.848Z,3.37
2019-05-07T16:14:27.988Z,3.47
2019-05-07T16:19:54.975Z,2.67
2019-05-07T16:25:11.727Z,3.20
2019-05-07T16:30:28.357Z,3.30
2019-05-07T16:35:43.962Z,2.70
2019-05-07T16:40:59.725Z,2.70
2019-05-07T16:46:15.699Z,2.50
2019-05-07T16:51:33.036Z,2.83
2019-05-07T16:57:12.198Z,2.37
2019-05-07T17:02:33.995Z,2.20
2019-05-07T17:08:13.862Z,2.73
2019-05-07T17:13:35.258Z,2.20
2019-05-07T17:18:57.901Z,2.40
2019-05-07T17:24:13.824Z,2.30
2019-05-07T17:29:35.911Z,2.10
2019-05-07T17:34:53.934Z,2.10
2019-05-07T17:40:11.976Z,2.53
2019-05-07T17:45:28.199Z,2.00
2019-05-07T17:50:56.958Z,2.03
2019-05-07T18:02:21.879Z,2.10
2019-05-07T18:07:41.950Z,2.33
2019-05-07T18:12:57.481Z,2.20
2019-05-07T18:18:14.513Z,1.90
2019-05-07T18:23:32.874Z,2.50
2019-05-07T18:28:54.459Z,2.07
2019-05-07T18:34:12.769Z,2.27
2019-05-07T18:39:28.160Z,2.30
2019-05-07T18:44:44.771Z,2.37
2019-05-07T18:50:02.718Z,2.40
2019-05-07T18:55:18.458Z,2.60
2019-05-07T19:00:37.735Z,2.13
2019-05-07T19:05:53.570Z,2.57
2019-05-07T19:11:09.625Z,2.40
2019-05-07T19:16:25.340Z,2.40
2019-05-07T19:21:42.329Z,2.10
2019-05-07T19:26:58.361Z,2.30
2019-05-07T19:32:14.823Z,2.23
2019-05-07T19:37:31.895Z,2.67
2019-05-07T19:42:48.438Z,2.60
2019-05-07T19:48:04.123Z,2.57
2019-05-07T19:53:21.320Z,2.53
2019-05-07T19:58:37.630Z,3.00
2019-05-07T20:03:53.590Z,2.67
2019-05-07T20:09:15.250Z,2.67
2019-05-07T20:14:39.261Z,2.57
2019-05-07T20:19:53.453Z,2.60
2019-05-07T20:25:18.951Z,3.10
2019-05-07T20:30:34.489Z,2.83
2019-05-07T20:36:08.117Z,2.97
2019-05-07T20:41:27.006Z,3.17
2019-05-07T20:46:48.995Z,3.17
2019-05-07T20:52:05.510Z,2.97
2019-05-07T20:57:25.437Z,3.00
2019-05-07T21:02:47.427Z,3.07
2019-05-07T21:08:08.646Z,2.87
2019-05-07T21:13:31.662Z,2.53
2019-05-07T21:18:43.780Z,3.10
2019-05-07T21:24:05.215Z,3.13
2019-05-07T21:29:21.289Z,3.03
2019-05-07T21:34:37.098Z,2.90
2019-05-07T21:40:02.960Z,3.00
2019-05-07T21:45:23.648Z,3.33
2019-05-07T21:50:37.642Z,2.93
2019-05-07T21:56:27.799Z,3.60
2019-05-07T22:01:48.675Z,3.67
2019-05-07T22:07:07.699Z,3.17
2019-05-07T22:12:23.493Z,3.30
2019-05-07T22:17:39.200Z,4.27
2019-05-07T22:22:54.698Z,3.97
2019-05-07T22:28:13.102Z,4.30
2019-05-07T22:33:37.817Z,4.20
2019-05-07T22:38:53.546Z,4.20
2019-05-07T22:44:11.997Z,3.87
2019-05-07T22:49:28.846Z,3.80
2019-05-07T22:54:44.854Z,3.90
2019-05-07T23:00:02.153Z,4.07
2019-05-07T23:05:22.848Z,3.27
2019-05-07T23:10:38.438Z,3.50
2019-05-07T23:15:54.044Z,3.23
2019-05-07T23:21:09.972Z,3.50
2019-05-07T23:26:25.645Z,3.90
2019-05-07T23:31:41.745Z,3.87
2019-05-07T23:36:57.568Z,3.60
2019-05-07T23:42:26.062Z,4.20
2019-05-07T23:47:44.456Z,3.70
2019-05-07T23:52:59.408Z,3.87
2019-05-07T23:58:14.854Z,3.73
